createdAt,value
2019-06-07T00:01:51.656Z,46.79
2019-06-07T00:04:25.114Z,47.14
2019-06-07T00:06:59.488Z,47.02
2019-06-07T00:09:32.731Z,46.85
2019-06-07T00:12:09.072Z,47.23
2019-06-07T00:14:41.386Z,47.83
2019-06-07T00:17:17.202Z,48.31
2019-06-07T00:19:50.243Z,48.36
2019-06-07T00:22:33.122Z,48.48
2019-06-07T00:24:59.003Z,48.42
2019-06-07T00:27:32.387Z,48.68
2019-06-07T00:30:40.114Z,49.01
2019-06-07T00:32:47.589Z,49.08
2019-06-07T00:35:22.438Z,48.95
2019-06-07T00:37:56.057Z,48.66
2019-06-07T00:40:32.046Z,48.73
2019-06-07T00:43:04.339Z,48.71
2019-06-07T00:45:37.637Z,48.83
2019-06-07T00:48:21.357Z,49.07
2019-06-07T00:50:45.990Z,48.90
2019-06-07T00:53:29.155Z,48.68
2019-06-07T00:55:54.711Z,48.75
2019-06-07T00:58:29.557Z,48.72
2019-06-07T01:01:03.109Z,48.50
2019-06-07T01:03:36.381Z,48.75
2019-06-07T01:06:09.574Z,48.47
2019-06-07T01:08:42.889Z,48.23
2019-06-07T01:11:18.542Z,48.11
2019-06-07T01:13:51.478Z,48.27
2019-06-07T01:16:26.425Z,48.12
2019-06-07T01:18:59.873Z,47.90
2019-06-07T01:21:33.272Z,48.01
2019-06-07T01:24:12.465Z,47.90
2019-06-07T01:26:41.873Z,47.88
2019-06-07T01:29:17.709Z,48.01
2019-06-07T01:31:50.353Z,48.03
2019-06-07T01:34:26.808Z,48.12
2019-06-07T01:36:58.861Z,48.17
2019-06-07T01:39:32.344Z,48.18
2019-06-07T01:42:05.833Z,48.31
2019-06-07T01:44:39.211Z,48.50
2019-06-07T01:47:12.641Z,48.69
2019-06-07T01:49:46.070Z,48.58
2019-06-07T01:52:20.074Z,48.61
2019-06-07T01:54:58.662Z,48.92
2019-06-07T01:57:44.834Z,49.11
2019-06-07T02:00:08.761Z,49.57
2019-06-07T02:02:42.218Z,49.80
2019-06-07T02:05:15.675Z,49.87
2019-06-07T02:07:49.037Z,49.87
2019-06-07T02:10:26.123Z,50.09
2019-06-07T02:12:58.107Z,50.01
2019-06-07T02:15:36.425Z,49.85
2019-06-07T02:18:06.517Z,49.97
2019-06-07T02:20:39.902Z,49.74
2019-06-07T02:23:13.262Z,49.80
2019-06-07T02:25:50.479Z,49.84
2019-06-07T02:28:30.084Z,49.65
2019-06-07T02:30:59.957Z,49.50
2019-06-07T02:33:39.139Z,49.31
2019-06-07T02:36:07.016Z,49.23
2019-06-07T02:38:40.481Z,49.10
2019-06-07T02:41:13.876Z,49.53
2019-06-07T02:43:47.260Z,49.62
2019-06-07T02:46:32.533Z,49.64
2019-06-07T02:48:59.871Z,49.80
2019-06-07T02:51:40.722Z,50.30
2019-06-07T02:54:08.395Z,50.64
2019-06-07T02:56:56.149Z,51.01
2019-06-07T02:59:17.132Z,51.02
2019-06-07T03:01:50.879Z,50.66
2019-06-07T03:04:28.556Z,50.38
2019-06-07T03:07:02.774Z,50.20
2019-06-07T03:09:37.071Z,49.99
2019-06-07T03:12:12.779Z,49.62
2019-06-07T03:14:46.416Z,48.93
2019-06-07T03:17:21.291Z,48.33
2019-06-07T03:19:57.016Z,47.45
2019-06-07T03:22:32.681Z,47.48
2019-06-07T03:25:07.707Z,46.94
2019-06-07T03:27:49.174Z,46.68
2019-06-07T03:32:49.258Z,45.60
2019-06-07T03:35:21.510Z,45.08
2019-06-07T03:37:53.780Z,44.30
2019-06-07T03:40:26.702Z,43.93
2019-06-07T03:42:59.224Z,43.65
2019-06-07T03:45:33.064Z,43.20
2019-06-07T03:50:41.851Z,42.08
2019-06-07T03:53:11.757Z,42.18
2019-06-07T03:55:43.966Z,42.38
2019-06-07T03:58:37.112Z,41.54
2019-06-07T04:00:50.419Z,40.79
2019-06-07T04:03:33.609Z,39.20
2019-06-07T04:05:56.688Z,39.24
2019-06-07T04:08:30.648Z,38.38
2019-06-07T04:11:02.825Z,38.59
2019-06-07T04:13:41.503Z,38.55
2019-06-07T04:16:08.889Z,39.02
2019-06-07T04:18:42.519Z,38.98
2019-06-07T04:21:15.031Z,38.73
2019-06-07T04:23:47.292Z,37.50
2019-06-07T04:26:19.574Z,37.38
2019-06-07T04:29:31.769Z,37.30
2019-06-07T04:31:25.779Z,37.23
2019-06-07T04:33:58.016Z,37.39
2019-06-07T04:36:47.547Z,37.07
2019-06-07T04:39:07.070Z,36.82
2019-06-07T04:41:40.921Z,35.84
2019-06-07T04:44:13.471Z,35.54
2019-06-07T04:46:47.229Z,35.26
2019-06-07T04:49:20.908Z,35.64
2019-06-07T04:51:54.192Z,35.48
2019-06-07T04:54:26.626Z,34.57
2019-06-07T04:56:58.933Z,34.37
2019-06-07T05:00:04.319Z,34.08
2019-06-07T05:02:05.248Z,34.17
2019-06-07T05:04:39.820Z,33.66
2019-06-07T05:07:11.631Z,33.54
2019-06-07T05:09:43.892Z,33.00
2019-06-07T05:12:16.143Z,32.36
2019-06-07T05:14:48.420Z,31.88
2019-06-07T05:17:20.664Z,32.64
2019-06-07T05:19:52.924Z,31.37
2019-06-07T05:22:25.141Z,31.71
2019-06-07T05:24:57.569Z,31.48
2019-06-07T05:27:32.591Z,32.10
2019-06-07T05:30:24.298Z,31.92
2019-06-07T05:32:45.210Z,31.57
2019-06-07T05:35:15.049Z,32.01
2019-06-07T05:37:47.392Z,32.32
2019-06-07T05:40:22.661Z,31.31
2019-06-07T05:42:55.066Z,32.07
2019-06-07T05:45:37.649Z,30.56
2019-06-07T05:48:07.555Z,29.63
2019-06-07T05:50:54.724Z,29.71
2019-06-07T05:53:13.809Z,28.88
2019-06-07T05:55:47.701Z,29.60
2019-06-07T05:58:19.958Z,30.11
2019-06-07T06:00:52.197Z,28.99
2019-06-07T06:03:24.532Z,28.54
2019-06-07T06:05:57.020Z,28.90
2019-06-07T06:08:29.295Z,29.49
2019-06-07T06:11:01.560Z,29.56
2019-06-07T06:13:36.498Z,28.79
2019-06-07T06:16:09.142Z,28.73
2019-06-07T06:18:45.800Z,28.65
2019-06-07T06:21:19.693Z,29.09
2019-06-07T06:23:51.968Z,28.72
2019-06-07T06:26:23.171Z,29.15
2019-06-07T06:28:56.350Z,28.57
2019-06-07T06:31:28.749Z,28.78
2019-06-07T06:34:01.063Z,27.14
2019-06-07T06:36:33.320Z,27.41
2019-06-07T06:39:07.857Z,27.36
2019-06-07T06:41:53.710Z,27.90
2019-06-07T06:44:14.085Z,27.31
2019-06-07T06:46:56.762Z,27.29
2019-06-07T06:49:20.398Z,28.73
2019-06-07T06:51:53.823Z,29.29
2019-06-07T06:54:40.010Z,29.85
2019-06-07T06:57:18.023Z,29.45
2019-06-07T06:59:39.038Z,29.84
2019-06-07T07:02:08.257Z,30.23
2019-06-07T07:04:42.315Z,31.81
2019-06-07T07:07:14.899Z,31.72
2019-06-07T07:09:51.513Z,31.87
2019-06-07T07:12:21.058Z,31.63
2019-06-07T07:14:56.052Z,31.25
2019-06-07T07:17:47.947Z,32.15
2019-06-07T07:20:02.284Z,32.27
2019-06-07T07:22:34.615Z,32.22
2019-06-07T07:25:09.654Z,31.15
2019-06-07T07:27:42.237Z,31.43
2019-06-07T07:30:36.319Z,31.29
2019-06-07T07:32:50.687Z,30.40
2019-06-07T07:35:22.712Z,30.09
2019-06-07T07:37:59.556Z,29.55
2019-06-07T07:40:56.812Z,29.75
2019-06-07T07:43:03.003Z,29.34
2019-06-07T07:45:35.343Z,29.81
2019-06-07T07:48:15.252Z,29.78
2019-06-07T07:50:41.749Z,30.53
2019-06-07T07:53:14.040Z,31.12
2019-06-07T07:55:51.515Z,31.76
2019-06-07T07:58:20.319Z,31.97
2019-06-07T08:01:00.253Z,31.51
2019-06-07T08:03:26.486Z,31.33
2019-06-07T08:06:00.171Z,30.50
2019-06-07T08:08:32.871Z,30.46
2019-06-07T08:11:05.138Z,30.19
2019-06-07T08:13:37.501Z,30.45
2019-06-07T08:16:15.971Z,29.99
2019-06-07T08:18:43.619Z,29.80
2019-06-07T08:21:25.523Z,29.02
2019-06-07T08:23:51.560Z,30.51
2019-06-07T08:26:23.887Z,28.47
2019-06-07T08:28:59.024Z,29.15
2019-06-07T08:31:30.025Z,29.61
2019-06-07T08:34:02.383Z,29.13
2019-06-07T08:36:41.919Z,29.34
2019-06-07T08:39:08.722Z,28.96
2019-06-07T08:41:53.980Z,28.69
2019-06-07T08:44:23.217Z,28.79
2019-06-07T08:46:56.597Z,28.94
2019-06-07T08:49:22.848Z,30.06
2019-06-07T08:52:04.516Z,29.46
2019-06-07T08:54:30.115Z,29.11
2019-06-07T08:57:20.143Z,29.16
2019-06-07T08:59:36.265Z,29.87
2019-06-07T09:02:22.971Z,29.76
2019-06-07T09:04:43.189Z,30.05
2019-06-07T09:07:20.003Z,31.22
2019-06-07T09:09:59.761Z,31.98
2019-06-07T09:12:25.206Z,33.01
2019-06-07T09:15:12.113Z,32.89
2019-06-07T09:17:31.402Z,32.05
2019-06-07T09:20:10.473Z,33.05
2019-06-07T09:22:39.505Z,32.92
2019-06-07T09:25:20.739Z,32.38
2019-06-07T09:27:46.306Z,33.59
2019-06-07T09:30:39.575Z,33.66
2019-06-07T09:33:12.632Z,33.80
2019-06-07T09:35:44.891Z,34.26
2019-06-07T09:38:25.643Z,34.35
2019-06-07T09:40:51.251Z,35.35
2019-06-07T09:46:01.023Z,35.55
2019-06-07T09:49:09.942Z,35.62
2019-06-07T09:51:19.138Z,35.64
2019-06-07T09:53:41.775Z,35.60
2019-06-07T09:56:13.982Z,35.80
2019-06-07T09:58:52.578Z,36.00
2019-06-07T10:01:20.274Z,34.97
2019-06-07T10:03:52.456Z,34.75
2019-06-07T10:06:24.749Z,34.55
2019-06-07T10:11:31.611Z,34.12
2019-06-07T10:14:04.514Z,34.48
2019-06-07T10:16:46.329Z,34.57
2019-06-07T10:19:10.714Z,33.99
2019-06-07T10:21:42.966Z,34.14
2019-06-07T10:24:15.211Z,34.33
2019-06-07T10:26:47.429Z,34.86
2019-06-07T10:29:19.649Z,35.58
2019-06-07T10:31:51.916Z,35.34
2019-06-07T10:34:24.231Z,35.25
2019-06-07T10:36:56.574Z,35.93
2019-06-07T10:39:28.792Z,35.15
2019-06-07T10:42:01.118Z,35.50
2019-06-07T10:44:33.401Z,35.22
2019-06-07T10:47:06.016Z,36.16
2019-06-07T10:49:38.461Z,36.31
2019-06-07T10:52:11.616Z,36.45
2019-06-07T10:54:44.484Z,36.75
2019-06-07T10:57:16.739Z,37.53
2019-06-07T10:59:49.045Z,36.09
2019-06-07T11:02:21.276Z,36.38
2019-06-07T11:04:53.466Z,36.45
2019-06-07T11:07:25.783Z,37.37
2019-06-07T11:10:07.115Z,36.82
2019-06-07T11:12:32.441Z,38.09
2019-06-07T11:15:06.726Z,37.70
2019-06-07T11:17:38.958Z,37.70
2019-06-07T11:20:12.388Z,38.62
2019-06-07T11:22:44.828Z,38.23
2019-06-07T11:25:18.568Z,38.59
2019-06-07T11:27:51.121Z,38.39
2019-06-07T11:30:23.477Z,38.57
2019-06-07T11:32:55.691Z,38.26
2019-06-07T11:35:27.949Z,37.89
2019-06-07T11:38:00.202Z,38.11
2019-06-07T11:40:35.826Z,38.75
2019-06-07T11:43:06.735Z,38.19
2019-06-07T11:45:38.987Z,38.52
2019-06-07T11:48:11.483Z,37.47
2019-06-07T11:50:43.738Z,37.16
2019-06-07T11:53:15.909Z,37.17
2019-06-07T11:55:48.170Z,37.03
2019-06-07T11:58:21.837Z,37.27
2019-06-07T12:00:54.371Z,36.84
2019-06-07T12:03:26.593Z,36.59
2019-06-07T12:05:58.872Z,36.12
2019-06-07T12:08:31.157Z,36.68
2019-06-07T12:11:03.479Z,36.19
2019-06-07T12:13:36.905Z,35.42
2019-06-07T12:16:09.235Z,34.67
2019-06-07T12:18:41.501Z,35.01
2019-06-07T12:21:13.800Z,35.03
2019-06-07T12:23:46.065Z,34.14
2019-06-07T12:26:18.666Z,34.08
2019-06-07T12:28:51.066Z,33.84
2019-06-07T12:31:23.343Z,33.47
2019-06-07T12:33:55.554Z,33.51
2019-06-07T12:36:27.791Z,32.63
2019-06-07T12:38:59.993Z,33.03
2019-06-07T12:41:32.239Z,33.66
2019-06-07T12:44:05.906Z,33.76
2019-06-07T12:46:38.161Z,33.22
2019-06-07T12:49:10.427Z,33.16
2019-06-07T12:51:42.695Z,33.75
2019-06-07T12:54:15.441Z,33.13
2019-06-07T12:56:47.782Z,32.35
2019-06-07T12:59:20.074Z,33.44
2019-06-07T13:01:52.329Z,32.86
2019-06-07T13:04:25.059Z,32.45
2019-06-07T13:06:57.747Z,32.13
2019-06-07T13:09:30.014Z,32.15
2019-06-07T13:12:02.721Z,32.40
2019-06-07T13:14:35.217Z,32.16
2019-06-07T13:17:07.475Z,31.74
2019-06-07T13:19:39.729Z,32.40
2019-06-07T13:22:11.985Z,32.74
2019-06-07T13:24:44.238Z,32.63
2019-06-07T13:27:16.503Z,32.39
2019-06-07T13:29:48.864Z,32.91
2019-06-07T13:32:21.659Z,32.21
2019-06-07T13:34:53.895Z,32.15
2019-06-07T13:37:27.652Z,31.52
2019-06-07T13:40:00.307Z,31.77
2019-06-07T13:42:32.648Z,32.86
2019-06-07T13:45:07.033Z,32.57
2019-06-07T13:47:39.275Z,32.38
2019-06-07T13:50:11.942Z,32.91
2019-06-07T13:52:46.303Z,33.45
2019-06-07T13:55:19.985Z,33.66
2019-06-07T13:57:52.378Z,33.53
2019-06-07T14:00:24.910Z,33.61
2019-06-07T14:02:57.481Z,34.04
2019-06-07T14:05:29.750Z,34.33
2019-06-07T14:08:02.017Z,35.14
2019-06-07T14:10:34.263Z,36.11
2019-06-07T14:13:06.690Z,36.81
2019-06-07T14:15:39.090Z,37.05
2019-06-07T14:18:11.510Z,37.28
2019-06-07T14:20:44.786Z,37.54
2019-06-07T14:23:16.961Z,38.14
2019-06-07T14:25:49.195Z,37.10
2019-06-07T14:28:24.683Z,35.78
2019-06-07T14:30:56.604Z,35.45
2019-06-07T14:33:30.648Z,36.59
2019-06-07T14:36:02.922Z,36.99
2019-06-07T14:38:37.475Z,39.90
2019-06-07T14:41:09.169Z,44.71
2019-06-07T14:43:43.868Z,45.58
2019-06-07T14:46:16.120Z,47.40
2019-06-07T14:48:48.495Z,48.56
2019-06-07T14:51:20.846Z,49.74
2019-06-07T14:53:53.127Z,50.26
2019-06-07T14:56:26.972Z,51.48
2019-06-07T14:58:59.598Z,53.34
2019-06-07T15:01:33.478Z,54.54
2019-06-07T15:04:06.028Z,55.37
2019-06-07T15:06:38.951Z,57.04
2019-06-07T15:09:11.394Z,56.40
2019-06-07T15:11:43.663Z,56.20
2019-06-07T15:14:16.967Z,57.03
2019-06-07T15:16:49.632Z,57.11
2019-06-07T15:19:24.137Z,57.24
2019-06-07T15:21:55.801Z,57.18
2019-06-07T15:24:28.162Z,58.26
2019-06-07T15:27:00.408Z,58.66
2019-06-07T15:29:33.827Z,59.10
2019-06-07T15:32:06.524Z,59.78
2019-06-07T15:34:38.697Z,59.68
2019-06-07T15:37:10.973Z,60.27
2019-06-07T15:39:43.353Z,60.62
2019-06-07T15:42:15.610Z,61.25
2019-06-07T15:44:47.897Z,57.94
2019-06-07T15:47:20.169Z,59.54
2019-06-07T15:49:52.469Z,60.48
2019-06-07T15:52:24.647Z,60.12
2019-06-07T15:54:56.938Z,60.00
2019-06-07T15:57:30.959Z,60.02
2019-06-07T16:00:04.475Z,60.18
2019-06-07T16:02:37.955Z,59.37
2019-06-07T16:05:10.314Z,59.07
2019-06-07T16:07:43.548Z,58.20
2019-06-07T16:10:16.644Z,58.62
2019-06-07T16:13:00.197Z,59.16
2019-06-07T16:15:23.796Z,59.56
2019-06-07T16:17:56.235Z,59.68
2019-06-07T16:20:28.523Z,60.34
2019-06-07T16:23:00.717Z,61.15
2019-06-07T16:25:33.976Z,61.68
2019-06-07T16:28:06.287Z,61.81
2019-06-07T16:30:38.598Z,62.02
2019-06-07T16:33:11.105Z,61.85
2019-06-07T16:35:43.386Z,62.06
2019-06-07T16:38:16.677Z,61.83
2019-06-07T16:40:48.926Z,62.04
2019-06-07T16:43:21.186Z,62.22
2019-06-07T16:45:53.372Z,62.89
2019-06-07T16:48:25.623Z,63.27
2019-06-07T16:50:57.793Z,63.58
2019-06-07T16:53:30.059Z,63.66
2019-06-07T16:56:02.454Z,63.76
2019-06-07T16:58:35.978Z,63.82
2019-06-07T17:01:08.218Z,63.90
2019-06-07T17:03:41.449Z,63.66
2019-06-07T17:06:14.030Z,63.21
2019-06-07T17:08:46.389Z,63.31
2019-06-07T17:11:18.707Z,63.20
2019-06-07T17:13:50.997Z,63.34
2019-06-07T17:16:23.456Z,63.25
2019-06-07T17:18:55.886Z,63.05
2019-06-07T17:21:28.091Z,62.97
2019-06-07T17:24:00.376Z,63.15
2019-06-07T17:26:32.754Z,62.90
2019-06-07T17:29:06.234Z,63.09
2019-06-07T17:31:39.795Z,62.96
2019-06-07T17:34:12.203Z,62.91
2019-06-07T17:36:46.443Z,62.74
2019-06-07T17:39:19.943Z,63.08
2019-06-07T17:42:01.797Z,62.48
2019-06-07T17:44:26.157Z,62.49
2019-06-07T17:46:58.422Z,62.29
2019-06-07T17:49:30.704Z,61.63
2019-06-07T17:52:02.940Z,61.26
2019-06-07T17:54:35.140Z,61.73
2019-06-07T17:57:07.431Z,61.71
2019-06-07T17:59:39.669Z,61.82
2019-06-07T18:02:15.388Z,62.22
2019-06-07T18:04:47.160Z,61.97
2019-06-07T18:07:20.632Z,62.36
2019-06-07T18:09:53.717Z,62.63
2019-06-07T18:12:25.974Z,62.87
2019-06-07T18:14:58.227Z,62.75
2019-06-07T18:17:34.525Z,62.84
2019-06-07T18:20:07.950Z,61.72
2019-06-07T18:22:40.282Z,61.48
2019-06-07T18:25:12.570Z,62.20
2019-06-07T18:27:44.845Z,61.58
2019-06-07T18:30:17.057Z,62.07
2019-06-07T18:32:49.316Z,61.72
2019-06-07T18:35:21.599Z,61.13
2019-06-07T18:37:55.094Z,61.55
2019-06-07T18:40:30.447Z,61.32
2019-06-07T18:43:02.922Z,61.19
2019-06-07T18:45:35.208Z,60.08
2019-06-07T18:48:07.399Z,59.65
2019-06-07T18:50:39.589Z,59.84
2019-06-07T18:53:11.837Z,59.17
2019-06-07T18:55:44.215Z,59.46
2019-06-07T18:58:16.555Z,59.33
2019-06-07T19:00:49.834Z,59.48
2019-06-07T19:03:23.679Z,59.79
2019-06-07T19:05:56.329Z,59.83
2019-06-07T19:08:28.671Z,60.69
2019-06-07T19:11:00.932Z,60.65
2019-06-07T19:13:33.202Z,60.39
2019-06-07T19:16:05.388Z,60.19
2019-06-07T19:18:37.904Z,60.27
2019-06-07T19:21:10.284Z,59.96
2019-06-07T19:23:42.563Z,59.90
2019-06-07T19:26:14.805Z,60.11
2019-06-07T19:28:47.057Z,59.87
2019-06-07T19:31:19.351Z,59.82
2019-06-07T19:33:51.567Z,59.88
2019-06-07T19:36:23.946Z,59.82
2019-06-07T19:38:56.240Z,60.05
2019-06-07T19:41:29.318Z,60.38
2019-06-07T19:44:02.436Z,60.28
2019-06-07T19:46:34.903Z,60.19
2019-06-07T19:49:07.162Z,60.46
2019-06-07T19:51:39.423Z,60.24
2019-06-07T19:54:11.698Z,60.28
2019-06-07T19:56:43.947Z,60.11
2019-06-07T19:59:16.201Z,60.49
2019-06-07T20:01:48.476Z,61.04
2019-06-07T20:04:20.761Z,60.56
2019-06-07T20:06:54.079Z,60.58
2019-06-07T20:09:26.523Z,60.59
2019-06-07T20:11:58.783Z,61.02
2019-06-07T20:14:31.064Z,61.28
2019-06-07T20:17:03.555Z,61.47
2019-06-07T20:19:36.058Z,61.51
2019-06-07T20:22:09.575Z,61.46
2019-06-07T20:24:42.101Z,60.83
2019-06-07T20:27:15.580Z,60.74
2019-06-07T20:29:47.857Z,60.64
2019-06-07T20:32:20.111Z,60.58
2019-06-07T20:34:52.353Z,61.22
2019-06-07T20:37:24.649Z,61.20
2019-06-07T20:39:57.063Z,60.97
2019-06-07T20:42:29.348Z,60.61
2019-06-07T20:45:02.120Z,60.53
2019-06-07T20:47:34.635Z,60.41
2019-06-07T20:50:10.373Z,60.42
2019-06-07T20:52:42.575Z,60.64
2019-06-07T20:55:14.930Z,60.50
2019-06-07T20:57:47.141Z,60.65
2019-06-07T21:00:21.919Z,60.90
2019-06-07T21:02:53.399Z,60.92
2019-06-07T21:05:25.650Z,61.05
2019-06-07T21:07:59.236Z,61.15
2019-06-07T21:10:31.758Z,61.34
2019-06-07T21:13:04.018Z,61.45
2019-06-07T21:15:48.383Z,61.42
2019-06-07T21:18:19.113Z,61.50
2019-06-07T21:20:44.271Z,61.64
2019-06-07T21:23:16.711Z,61.76
2019-06-07T21:25:48.897Z,61.99
2019-06-07T21:28:21.174Z,61.98
2019-06-07T21:30:53.427Z,62.19
2019-06-07T21:33:25.692Z,61.65
2019-06-07T21:35:57.893Z,61.62
2019-06-07T21:38:32.718Z,61.96
2019-06-07T21:41:06.100Z,61.77
2019-06-07T21:43:38.386Z,61.85
2019-06-07T21:46:17.301Z,61.99
2019-06-07T21:48:44.623Z,61.72
2019-06-07T21:51:16.789Z,61.78
2019-06-07T21:53:49.078Z,62.31
2019-06-07T21:56:21.260Z,62.53
2019-06-07T21:58:53.511Z,62.72
2019-06-07T22:01:27.544Z,62.58
2019-06-07T22:03:59.788Z,62.68
2019-06-07T22:06:31.962Z,62.26
2019-06-07T22:09:05.670Z,62.28
2019-06-07T22:11:37.995Z,62.15
2019-06-07T22:14:10.497Z,62.09
2019-06-07T22:16:42.796Z,62.20
2019-06-07T22:19:15.458Z,62.18
2019-06-07T22:22:01.805Z,62.56
2019-06-07T22:24:21.942Z,62.55
2019-06-07T22:26:54.209Z,62.44
2019-06-07T22:29:26.458Z,62.35
2019-06-07T22:31:58.645Z,62.35
2019-06-07T22:34:30.854Z,62.36
2019-06-07T22:37:03.118Z,62.41
2019-06-07T22:39:35.437Z,62.91
2019-06-07T22:42:09.244Z,63.06
2019-06-07T22:44:41.510Z,63.39
2019-06-07T22:47:14.067Z,63.70
2019-06-07T22:49:46.461Z,63.54
2019-06-07T22:52:18.670Z,63.52
2019-06-07T22:54:50.934Z,64.19
2019-06-07T22:57:24.874Z,64.21
2019-06-07T22:59:57.117Z,63.97
2019-06-07T23:02:29.388Z,63.66
2019-06-07T23:05:04.796Z,63.86
2019-06-07T23:07:35.610Z,63.99
2019-06-07T23:10:09.030Z,64.06
2019-06-07T23:12:41.574Z,64.08
2019-06-07T23:15:13.841Z,63.91
2019-06-07T23:17:46.087Z,63.48
2019-06-07T23:20:18.460Z,63.05
2019-06-07T23:22:50.763Z,62.99
2019-06-07T23:25:24.639Z,63.30
2019-06-07T23:27:57.335Z,62.64
2019-06-07T23:30:29.501Z,62.86
2019-06-07T23:33:01.770Z,63.41
2019-06-07T23:35:34.031Z,62.99
2019-06-07T23:38:06.303Z,63.11
2019-06-07T23:40:38.712Z,63.01
2019-06-07T23:43:11.659Z,63.24
2019-06-07T23:45:43.935Z,62.68
2019-06-07T23:48:17.406Z,62.94
2019-06-07T23:50:49.748Z,62.98
2019-06-07T23:53:22.272Z,63.40
2019-06-07T23:55:54.473Z,63.63
2019-06-07T23:58:26.653Z,63.66
